Montezuma, North Carolina
Current Conditions -  °F | °C
As of 6:55 PM on Saturday 22 Nov 2014 (Local Time) from KTNB Reporting Station
Clear Clear  
Wind Chill: 35°   Ceiling: Unl
Heat Index: 38°   Visibility: 10mi
Dew Point: 16°   Wind: 5mph
Humidity: 39%   Direction: 180°S
Pressure: 30.3"   Gusts: NA
Location:  36.06°N, 81.9°W
Report Text: KTNB 222355Z AUTO 18004KT 10SM CLR 04/M09 A3030 RMK AO2 T00361091 10095 20032
Loading
Personal Weather Stations






























Interactive Weather Map New forecast layout! Learn more

10-Day Weather Forecast

Advertisements
Track Severe Weather on mobile